Time;durP1;ratioP1;P1;durP2;ratioP2;P2;SDS_P1;SDS_P2;PMS_P1;PMS_P2;Temp;Humidity;BMP_temperature;BMP_pressure;BME280_temperature;BME280_humidity;BME280_pressure;Samples;Min_cycle;Max_cycle;Signal;HPM_P1;HPM_P2
2022/01/19 00:00:37;;;;;;;19.73;13.25;;;16.70;42.00;;;;;;5081277;28;20023;-38
2022/01/19 00:03:03;;;;;;;19.27;12.98;;;16.70;42.00;;;;;;5061392;28;20020;-37
2022/01/19 00:05:30;;;;;;;18.65;12.57;;;16.80;42.10;;;;;;5078779;28;20047;-38
2022/01/19 00:07:56;;;;;;;19.52;13.23;;;16.70;42.00;;;;;;5078945;28;20051;-38
2022/01/19 00:10:27;;;;;;;18.88;12.55;;;16.70;42.00;;;;;;5061079;28;20017;-38
2022/01/19 00:12:57;;;;;;;17.83;12.30;;;16.70;42.00;;;;;;5061609;28;20044;-38
2022/01/19 00:15:24;;;;;;;18.98;13.02;;;16.70;42.00;;;;;;5078146;28;20034;-39
2022/01/19 00:17:57;;;;;;;16.45;11.98;;;16.70;42.00;;;;;;5078507;28;20066;-38
2022/01/19 00:20:23;;;;;;;18.42;13.05;;;16.70;42.00;;;;;;5079188;28;20534;-38
2022/01/19 00:22:50;;;;;;;17.95;12.85;;;16.70;42.00;;;;;;5078409;28;20048;-37
2022/01/19 00:25:15;;;;;;;18.30;12.77;;;16.70;42.00;;;;;;5079132;28;20016;-38
2022/01/19 00:27:41;;;;;;;17.35;12.30;;;16.70;42.00;;;;;;5078672;28;20544;-38
2022/01/19 00:30:07;;;;;;;19.20;12.63;;;16.70;42.00;;;;;;5061074;28;20017;-39
2022/01/19 00:32:34;;;;;;;17.27;11.90;;;16.70;42.10;;;;;;5077937;28;20471;-38
2022/01/19 00:35:00;;;;;;;17.55;12.50;;;16.70;42.10;;;;;;5078316;28;20031;-38
2022/01/19 00:37:26;;;;;;;16.40;11.90;;;16.60;42.10;;;;;;5060117;28;20013;-38
2022/01/19 00:39:52;;;;;;;18.55;12.55;;;16.60;42.00;;;;;;5077549;28;20035;-38
2022/01/19 00:42:18;;;;;;;17.45;12.30;;;16.60;42.10;;;;;;5057660;28;20023;-39
2022/01/19 00:44:44;;;;;;;17.65;12.63;;;16.60;42.10;;;;;;5075466;28;20121;-38
2022/01/19 00:47:10;;;;;;;18.05;11.98;;;16.60;42.10;;;;;;5075305;28;20032;-39
2022/01/19 00:49:36;;;;;;;18.10;12.05;;;16.60;42.10;;;;;;5075294;28;20016;-38
2022/01/19 00:52:02;;;;;;;16.55;12.32;;;16.60;42.10;;;;;;5075095;28;20095;-39
2022/01/19 00:54:28;;;;;;;17.85;12.57;;;16.60;42.10;;;;;;5044831;28;20043;-37
2022/01/19 00:56:54;;;;;;;16.70;12.18;;;16.60;42.10;;;;;;5035733;28;20544;-37
2022/01/19 00:59:20;;;;;;;18.45;11.90;;;16.60;42.10;;;;;;5035704;28;20021;-37
2022/01/19 01:01:46;;;;;;;16.25;11.80;;;16.60;42.10;;;;;;5034447;28;20499;-38
2022/01/19 01:04:12;;;;;;;16.73;11.48;;;16.60;42.10;;;;;;5017880;28;20529;-37
2022/01/19 01:06:37;;;;;;;17.50;12.27;;;16.60;42.20;;;;;;5035220;28;20522;-37
2022/01/19 01:09:03;;;;;;;15.73;11.57;;;16.60;42.10;;;;;;5035586;28;20025;-37
2022/01/19 01:11:32;;;;;;;16.80;11.90;;;16.50;42.10;;;;;;5034181;28;20010;-37
2022/01/19 01:16:40;;;;;;;17.77;11.93;;;16.50;42.10;;;;;;5034668;28;20018;-37
2022/01/19 01:19:09;;;;;;;17.13;11.82;;;16.50;42.20;;;;;;5034783;28;20041;-37
2022/01/19 01:21:35;;;;;;;16.80;11.93;;;16.40;42.10;;;;;;5034543;28;20021;-37
2022/01/19 01:24:02;;;;;;;15.85;11.85;;;16.50;42.10;;;;;;5035228;28;20033;-37
2022/01/19 01:26:28;;;;;;;18.02;12.40;;;16.50;42.20;;;;;;5035286;28;20024;-37
2022/01/19 01:28:53;;;;;;;18.27;12.00;;;16.50;42.20;;;;;;5034794;28;20034;-37
2022/01/19 01:31:19;;;;;;;16.58;11.80;;;16.40;42.10;;;;;;5036552;28;20021;-37
2022/01/19 01:33:45;;;;;;;16.58;12.10;;;16.50;42.10;;;;;;5036167;28;20021;-38
2022/01/19 01:36:12;;;;;;;18.05;12.40;;;16.50;42.10;;;;;;5037047;28;20029;-37
2022/01/19 01:38:37;;;;;;;19.08;12.25;;;16.40;42.00;;;;;;5035898;28;20024;-36
2022/01/19 01:41:14;;;;;;;17.80;12.27;;;16.40;42.00;;;;;;5035863;28;20026;-36
2022/01/19 01:43:43;;;;;;;17.45;11.38;;;16.50;42.10;;;;;;5037379;28;20041;-38
2022/01/19 01:46:21;;;;;;;16.35;11.70;;;16.40;42.10;;;;;;5035791;28;20021;-36
2022/01/19 01:48:47;;;;;;;16.17;11.65;;;16.40;42.10;;;;;;5036578;28;20025;-36
2022/01/19 01:53:57;;;;;;;15.57;11.23;;;16.40;42.00;;;;;;5046725;28;20051;-37
2022/01/19 01:56:32;;;;;;;15.82;11.40;;;16.40;41.90;;;;;;5077557;28;20044;-37
2022/01/19 01:58:58;;;;;;;18.05;11.98;;;16.40;42.00;;;;;;5078238;28;20024;-37
2022/01/19 02:01:25;;;;;;;16.58;11.82;;;16.40;42.00;;;;;;5060618;28;20021;-37
2022/01/19 02:03:52;;;;;;;16.23;11.35;;;16.40;41.90;;;;;;5078919;28;20028;-37
2022/01/19 02:08:54;;;;;;;15.45;11.40;;;16.40;41.80;;;;;;5078596;28;20041;-38
2022/01/19 02:21:38;;;;;;;18.23;11.63;;;16.40;41.80;;;;;;5078979;28;20047;-37
2022/01/19 02:22:20;;;;;;;16.52;11.65;;;16.30;41.80;;;;;;5064032;28;20124;-37
2022/01/19 02:24:48;;;;;;;15.38;11.57;;;16.30;41.80;;;;;;5078822;28;20104;-37
2022/01/19 02:40:57;;;;;;;17.75;11.75;;;16.30;41.70;;;;;;5083225;28;20059;-36
2022/01/19 02:43:26;;;;;;;14.68;11.40;;;16.30;41.70;;;;;;5065108;28;20059;-37
2022/01/19 02:51:20;;;;;;;16.67;11.23;;;16.20;41.60;;;;;;5079057;28;20112;-36
2022/01/19 02:53:46;;;;;;;15.40;11.55;;;16.30;41.60;;;;;;5044502;28;20072;-36
2022/01/19 02:56:21;;;;;;;15.70;11.30;;;16.30;41.60;;;;;;5079238;28;20020;-37
2022/01/19 02:58:55;;;;;;;17.27;11.45;;;16.20;41.40;;;;;;5079384;28;20032;-36
2022/01/19 03:09:27;;;;;;;16.65;11.73;;;16.20;41.40;;;;;;5079744;28;20126;-36
2022/01/19 03:11:53;;;;;;;15.43;11.20;;;16.20;41.30;;;;;;5079815;28;20475;-36
2022/01/19 03:14:19;;;;;;;17.52;11.70;;;16.20;41.40;;;;;;5080831;28;20031;-35
2022/01/19 03:16:45;;;;;;;17.00;11.65;;;16.20;41.40;;;;;;5045987;28;20013;-36
2022/01/19 03:19:12;;;;;;;15.05;10.90;;;16.20;41.30;;;;;;5080618;28;20024;-37
2022/01/19 03:21:38;;;;;;;15.98;12.10;;;16.30;41.20;;;;;;5080804;28;20048;-37
2022/01/19 03:24:05;;;;;;;14.95;11.18;;;16.30;41.10;;;;;;5079475;28;20016;-36
2022/01/19 03:26:31;;;;;;;14.15;10.80;;;16.40;41.00;;;;;;5062265;28;20028;-36
2022/01/19 03:28:57;;;;;;;16.90;11.98;;;16.40;41.00;;;;;;5080022;28;20023;-36
2022/01/19 03:31:23;;;;;;;14.40;10.77;;;16.50;41.00;;;;;;5062986;28;20025;-36
2022/01/19 03:33:49;;;;;;;15.50;11.00;;;16.60;40.60;;;;;;5081135;28;20036;-36
2022/01/19 03:36:17;;;;;;;17.02;11.65;;;16.80;40.40;;;;;;5080851;28;20013;-37
2022/01/19 03:38:43;;;;;;;13.90;10.65;;;16.90;39.80;;;;;;5080942;28;20070;-36
2022/01/19 03:41:09;;;;;;;14.73;10.73;;;17.00;39.50;;;;;;5082462;28;20025;-36
2022/01/19 03:43:35;;;;;;;15.30;11.25;;;17.10;39.30;;;;;;5064613;28;20446;-36
2022/01/19 03:46:04;;;;;;;15.50;11.43;;;17.10;39.30;;;;;;5083502;28;20021;-37
2022/01/19 03:48:38;;;;;;;15.15;10.73;;;17.20;39.20;;;;;;5083699;28;20124;-37
2022/01/19 03:51:04;;;;;;;14.32;10.60;;;17.20;39.00;;;;;;5084406;28;20020;-37
2022/01/19 03:53:29;;;;;;;14.00;10.80;;;17.30;38.90;;;;;;5083493;28;20110;-36
2022/01/19 03:55:56;;;;;;;14.50;10.73;;;17.40;38.70;;;;;;5084523;28;20017;-37
2022/01/19 03:58:21;;;;;;;15.43;11.13;;;17.50;38.50;;;;;;5066179;28;20048;-38
2022/01/19 04:00:53;;;;;;;13.77;10.57;;;17.60;38.30;;;;;;5084475;28;20446;-37
2022/01/19 04:03:22;;;;;;;13.60;10.30;;;17.70;38.10;;;;;;5084441;28;20033;-36
2022/01/19 04:08:17;;;;;;;13.40;10.40;;;17.90;37.70;;;;;;5067073;28;20294;-36
2022/01/19 04:10:44;;;;;;;14.35;10.73;;;18.00;37.50;;;;;;5084155;28;20471;-37
2022/01/19 04:13:44;;;;;;;13.43;10.23;;;18.10;37.30;;;;;;5083636;28;20031;-36
2022/01/19 04:15:57;;;;;;;12.73;10.05;;;18.20;37.10;;;;;;5068154;28;20036;-37
2022/01/19 04:18:22;;;;;;;14.18;10.32;;;18.30;36.80;;;;;;5083637;28;20066;-37
2022/01/19 04:20:51;;;;;;;13.52;10.32;;;18.40;36.70;;;;;;5082740;28;20088;-37
2022/01/19 04:23:17;;;;;;;13.23;10.13;;;18.40;36.40;;;;;;5082654;28;20105;-37
2022/01/19 04:25:44;;;;;;;13.73;10.35;;;18.50;36.30;;;;;;5082762;28;20016;-37
2022/01/19 04:28:10;;;;;;;13.35;9.95;;;18.60;36.10;;;;;;5064673;28;20081;-37
2022/01/19 04:30:36;;;;;;;12.82;9.80;;;18.70;36.00;;;;;;5082824;28;20099;-37
2022/01/19 04:33:06;;;;;;;13.00;9.93;;;18.70;35.80;;;;;;5083060;28;20004;-37
2022/01/19 04:35:43;;;;;;;14.55;10.10;;;18.80;35.70;;;;;;5065229;28;20522;-36
2022/01/19 04:46:52;;;;;;;12.68;9.55;;;19.10;35.10;;;;;;5065055;28;20033;-37
2022/01/19 05:07:44;;;;;;;10.88;8.57;;;19.70;34.10;;;;;;5080468;28;20040;-37
2022/01/19 05:15:38;;;;;;;10.90;9.10;;;19.90;33.70;;;;;;5076502;28;20485;-36
2022/01/19 05:18:05;;;;;;;11.30;8.85;;;20.00;33.60;;;;;;5059359;28;20084;-36
2022/01/19 05:20:31;;;;;;;10.07;8.18;;;20.10;33.50;;;;;;5077678;28;20021;-37
2022/01/19 05:22:56;;;;;;;11.18;8.70;;;20.10;33.40;;;;;;5078004;28;20548;-38
2022/01/19 05:25:22;;;;;;;10.40;8.40;;;20.20;33.40;;;;;;5079834;28;20020;-36
2022/01/19 05:27:48;;;;;;;11.05;8.45;;;20.20;33.30;;;;;;5079337;28;20050;-37
2022/01/19 05:30:17;;;;;;;10.32;8.27;;;20.20;33.20;;;;;;5062683;28;20040;-38
2022/01/19 05:32:46;;;;;;;10.85;8.88;;;20.30;33.10;;;;;;5081051;28;20088;-36
2022/01/19 05:35:12;;;;;;;10.60;8.23;;;20.40;33.00;;;;;;5046083;28;20039;-37
2022/01/19 05:37:38;;;;;;;11.25;8.23;;;20.40;33.50;;;;;;5079944;28;20031;-37
2022/01/19 05:40:09;;;;;;;11.15;7.72;;;20.40;32.90;;;;;;5062867;28;20076;-36
2022/01/19 05:42:34;;;;;;;10.05;8.00;;;20.50;32.70;;;;;;5080052;28;20016;-37
2022/01/19 05:45:01;;;;;;;8.70;7.30;;;20.60;32.70;;;;;;5079453;28;20029;-36
2022/01/19 05:47:26;;;;;;;9.45;8.00;;;20.60;32.60;;;;;;5079127;28;20154;-37
2022/01/19 05:49:52;;;;;;;10.05;8.13;;;20.60;32.50;;;;;;5079892;28;20013;-38
2022/01/19 05:52:19;;;;;;;8.43;7.43;;;20.70;32.50;;;;;;5080676;28;20029;-37
2022/01/19 05:54:45;;;;;;;9.18;7.55;;;20.70;32.40;;;;;;5062547;28;20044;-37
2022/01/19 05:57:13;;;;;;;8.30;6.97;;;20.80;32.30;;;;;;5080012;28;20103;-37
2022/01/19 05:59:39;;;;;;;9.60;7.75;;;20.80;32.80;;;;;;5060218;28;20017;-38
2022/01/19 06:02:05;;;;;;;9.10;7.30;;;20.90;32.20;;;;;;5079760;28;20016;-37
2022/01/19 06:04:31;;;;;;;10.57;8.05;;;20.90;32.20;;;;;;5065478;28;20028;-37
2022/01/19 06:06:57;;;;;;;9.63;7.82;;;21.00;32.10;;;;;;5082756;28;20008;-37
2022/01/19 06:09:48;;;;;;;8.35;7.00;;;21.00;32.00;;;;;;5083564;28;20028;-37
2022/01/19 06:12:14;;;;;;;8.77;7.30;;;21.10;32.00;;;;;;5084192;28;20083;-38
2022/01/19 06:14:42;;;;;;;8.27;6.70;;;21.10;31.80;;;;;;5083286;28;20023;-38
2022/01/19 06:17:10;;;;;;;8.70;7.10;;;21.10;31.70;;;;;;5082309;28;20021;-37
2022/01/19 06:19:36;;;;;;;8.00;6.80;;;21.20;31.70;;;;;;5081755;28;20011;-36
2022/01/19 06:22:02;;;;;;;7.70;6.60;;;21.20;31.60;;;;;;5081548;28;20015;-37
2022/01/19 06:24:28;;;;;;;7.57;6.57;;;21.30;31.60;;;;;;5080657;28;20021;-37
2022/01/19 06:26:54;;;;;;;8.30;6.90;;;21.30;31.60;;;;;;5080331;28;20076;-37
2022/01/19 06:29:21;;;;;;;7.60;6.68;;;21.30;31.50;;;;;;5080316;28;20036;-37
2022/01/19 06:31:47;;;;;;;8.38;6.47;;;21.40;31.50;;;;;;5079799;28;20486;-37
2022/01/19 06:34:13;;;;;;;7.47;6.53;;;21.40;31.40;;;;;;5079375;28;20028;-37
2022/01/19 06:36:40;;;;;;;7.75;6.63;;;21.50;31.30;;;;;;5078731;28;20012;-38
2022/01/19 06:39:06;;;;;;;7.95;6.28;;;21.50;31.30;;;;;;5061458;28;20024;-36
2022/01/19 06:41:32;;;;;;;8.77;6.65;;;21.60;31.20;;;;;;5078800;28;20013;-36
2022/01/19 06:43:59;;;;;;;7.97;6.40;;;21.60;31.10;;;;;;5061034;28;20028;-36
2022/01/19 06:46:25;;;;;;;8.50;6.35;;;21.60;31.10;;;;;;5060385;28;20024;-36
2022/01/19 06:48:50;;;;;;;7.60;6.25;;;21.60;31.10;;;;;;5059292;28;20073;-36
2022/01/19 06:51:16;;;;;;;8.20;6.45;;;21.60;31.00;;;;;;5077287;28;20020;-36
2022/01/19 06:53:42;;;;;;;6.75;5.90;;;21.70;31.00;;;;;;5082085;28;20025;-37
2022/01/19 06:56:08;;;;;;;7.95;6.10;;;21.80;31.20;;;;;;5099765;28;20058;-36
2022/01/19 06:58:34;;;;;;;8.38;6.32;;;21.80;30.80;;;;;;5098660;28;20040;-37
2022/01/19 07:01:00;;;;;;;8.30;6.22;;;21.80;30.90;;;;;;5098493;28;20051;-36
2022/01/19 07:03:26;;;;;;;7.47;5.60;;;21.80;30.70;;;;;;5097540;28;20526;-35
2022/01/19 07:05:53;;;;;;;7.25;5.72;;;21.90;30.70;;;;;;5079921;28;20504;-36
2022/01/19 07:08:20;;;;;;;7.45;5.05;;;21.90;30.80;;;;;;5097526;28;20026;-36
2022/01/19 07:10:46;;;;;;;7.43;5.85;;;21.90;30.80;;;;;;5079843;28;20016;-37
2022/01/19 07:13:12;;;;;;;6.85;5.40;;;21.90;30.80;;;;;;5077116;28;20036;-36
2022/01/19 07:15:40;;;;;;;6.10;5.35;;;21.90;30.80;;;;;;5097255;28;20096;-37
2022/01/19 07:18:07;;;;;;;6.72;5.50;;;21.90;30.70;;;;;;5096722;28;20043;-37
2022/01/19 07:20:33;;;;;;;6.30;5.25;;;21.80;30.70;;;;;;5076969;28;20020;-37
2022/01/19 07:23:01;;;;;;;13.65;5.03;;;21.40;30.90;;;;;;5094818;28;20520;-36
2022/01/19 07:25:28;;;;;;;13.80;4.80;;;21.00;31.90;;;;;;5094870;28;20028;-37
2022/01/19 07:27:54;;;;;;;16.15;4.55;;;20.80;32.90;;;;;;5078167;28;20021;-36
2022/01/19 07:30:20;;;;;;;11.75;5.70;;;20.80;33.60;;;;;;5097184;28;20047;-37
2022/01/19 07:32:48;;;;;;;10.25;4.82;;;20.70;33.70;;;;;;5097363;28;20467;-37
2022/01/19 07:35:16;;;;;;;9.85;4.20;;;20.70;34.00;;;;;;5096960;28;20024;-37
2022/01/19 07:37:42;;;;;;;8.07;3.97;;;20.60;34.10;;;;;;5097753;28;20098;-37
2022/01/19 07:40:11;;;;;;;11.65;4.13;;;20.50;34.10;;;;;;5079027;28;20054;-36
2022/01/19 07:42:37;;;;;;;10.93;4.20;;;20.50;34.20;;;;;;5096590;28;20024;-36
2022/01/19 07:45:04;;;;;;;9.88;3.67;;;20.50;34.60;;;;;;5097890;28;20134;-36
2022/01/19 07:47:37;;;;;;;9.40;3.85;;;20.50;34.00;;;;;;5098018;28;20012;-36
2022/01/19 07:50:04;;;;;;;10.43;3.90;;;20.40;34.40;;;;;;5097773;28;20035;-36
2022/01/19 07:52:36;;;;;;;6.90;3.60;;;20.40;34.20;;;;;;5098359;28;20406;-36
2022/01/19 07:55:05;;;;;;;8.10;3.42;;;20.50;34.00;;;;;;5097627;28;20496;-37
2022/01/19 07:57:31;;;;;;;7.10;3.45;;;20.50;33.70;;;;;;5078707;28;20059;-36
2022/01/19 07:59:57;;;;;;;5.85;3.50;;;20.60;33.70;;;;;;5097464;28;20036;-38
2022/01/19 08:02:32;;;;;;;6.28;3.90;;;20.50;33.60;;;;;;5096388;28;20526;-37
2022/01/19 08:04:58;;;;;;;7.88;3.80;;;20.40;33.30;;;;;;5097428;28;20047;-36
2022/01/19 08:07:26;;;;;;;6.90;4.35;;;20.40;33.70;;;;;;5077121;28;20004;-36
2022/01/19 08:09:52;;;;;;;7.70;4.28;;;20.40;33.70;;;;;;5095758;28;20458;-36
2022/01/19 08:12:18;;;;;;;6.95;4.15;;;20.40;33.60;;;;;;5095622;28;20073;-36
2022/01/19 08:14:44;;;;;;;13.48;4.97;;;20.40;33.60;;;;;;5076409;28;20024;-36
2022/01/19 08:17:11;;;;;;;5.72;4.30;;;20.50;33.70;;;;;;5095109;28;20435;-36
2022/01/19 08:19:37;;;;;;;10.75;4.60;;;20.40;33.60;;;;;;5094847;28;20027;-36
2022/01/19 08:22:03;;;;;;;17.15;5.70;;;20.50;33.70;;;;;;5095702;28;20016;-35
2022/01/19 08:24:29;;;;;;;16.02;4.75;;;20.50;34.60;;;;;;5095146;28;20012;-36
2022/01/19 08:26:55;;;;;;;13.75;4.90;;;20.60;34.60;;;;;;5095184;28;20560;-36
2022/01/19 08:29:24;;;;;;;8.10;4.47;;;20.60;34.50;;;;;;5078145;28;20028;-36
2022/01/19 08:31:49;;;;;;;10.18;5.25;;;20.60;34.40;;;;;;5077686;28;20104;-36
2022/01/19 08:34:17;;;;;;;11.05;5.35;;;20.60;33.90;;;;;;5095083;28;20056;-36
2022/01/19 08:36:44;;;;;;;10.75;4.97;;;20.50;33.60;;;;;;5077659;28;20016;-35
2022/01/19 08:39:12;;;;;;;11.95;5.90;;;20.30;33.80;;;;;;5093754;28;20044;-36
2022/01/19 08:41:40;;;;;;;9.85;5.30;;;19.40;34.90;;;;;;5094602;28;20043;-36
2022/01/19 08:44:06;;;;;;;8.23;5.40;;;19.30;35.50;;;;;;5093352;28;20399;-37
2022/01/19 08:46:37;;;;;;;7.28;5.60;;;19.10;35.80;;;;;;5093220;28;20031;-37
2022/01/19 08:49:04;;;;;;;11.45;5.80;;;19.10;35.10;;;;;;5093441;28;20021;-36
2022/01/19 08:51:31;;;;;;;10.95;5.60;;;18.50;36.70;;;;;;5093030;28;20108;-36
2022/01/19 08:53:59;;;;;;;9.40;5.63;;;18.70;36.80;;;;;;5093005;28;20059;-36
2022/01/19 08:56:26;;;;;;;9.65;5.40;;;18.70;36.40;;;;;;5093016;28;20017;-37
2022/01/19 08:58:52;;;;;;;12.35;5.90;;;18.90;36.20;;;;;;5074717;28;20023;-37
2022/01/19 09:01:18;;;;;;;15.50;5.72;;;19.00;35.80;;;;;;5093051;28;20016;-37
2022/01/19 09:03:46;;;;;;;13.25;6.18;;;18.90;35.90;;;;;;5094401;28;20459;-37
2022/01/19 09:06:57;;;;;;;;;;;;;;;;;;;;;
2022/01/19 09:09:24;;;;;;;20.33;6.13;;;17.60;38.40;;;;;;4996969;28;20185;-37
2022/01/19 09:11:50;;;;;;;14.35;6.40;;;17.50;39.10;;;;;;5011262;28;20037;-36
2022/01/19 09:14:16;;;;;;;21.75;8.38;;;17.90;38.20;;;;;;5012283;28;20060;-36
2022/01/19 09:16:44;;;;;;;20.83;7.60;;;17.80;37.80;;;;;;4978942;28;20480;-36
2022/01/19 09:19:12;;;;;;;21.00;6.50;;;18.00;38.60;;;;;;5011849;28;20034;-36
2022/01/19 09:21:40;;;;;;;17.83;7.15;;;18.50;37.30;;;;;;5012274;28;20033;-35
2022/01/19 09:24:09;;;;;;;24.75;7.38;;;19.10;36.80;;;;;;4994472;28;20029;-36
2022/01/19 09:26:38;;;;;;;19.15;6.18;;;19.50;36.20;;;;;;5011587;28;20029;-36
2022/01/19 09:29:07;;;;;;;19.02;5.93;;;19.80;35.70;;;;;;5013018;28;20030;-37
2022/01/19 09:31:35;;;;;;;10.20;5.60;;;20.10;35.30;;;;;;5013086;28;20029;-37
2022/01/19 09:34:10;;;;;;;14.85;5.68;;;20.20;35.00;;;;;;5013256;28;20025;-36
2022/01/19 09:36:44;;;;;;;12.75;5.38;;;20.30;34.60;;;;;;5013080;28;20025;-37
2022/01/19 09:39:12;;;;;;;11.50;5.43;;;20.50;34.40;;;;;;5011860;28;20083;-36
2022/01/19 09:41:40;;;;;;;14.23;5.28;;;20.50;34.10;;;;;;5011956;28;20121;-35
2022/01/19 09:44:07;;;;;;;12.00;5.10;;;20.60;33.90;;;;;;5011806;28;20014;-35
2022/01/19 09:46:36;;;;;;;11.05;5.20;;;20.70;33.90;;;;;;5054285;28;20402;-36
2022/01/19 09:49:05;;;;;;;11.27;5.90;;;20.80;33.80;;;;;;5093971;28;20020;-36
2022/01/19 09:51:33;;;;;;;11.93;5.07;;;20.80;33.70;;;;;;5095065;28;20071;-36
2022/01/19 09:53:59;;;;;;;9.95;5.05;;;20.90;33.50;;;;;;5076034;28;20042;-38
2022/01/19 09:56:25;;;;;;;11.05;5.00;;;21.00;33.50;;;;;;5094243;28;20095;-37
2022/01/19 09:58:56;;;;;;;7.88;4.70;;;20.90;33.30;;;;;;5093451;28;20449;-37
2022/01/19 10:01:22;;;;;;;11.52;5.22;;;21.00;33.20;;;;;;5075847;28;20080;-38
2022/01/19 10:03:48;;;;;;;8.45;4.57;;;21.00;32.90;;;;;;5093498;28;20031;-37
2022/01/19 10:06:15;;;;;;;9.00;4.47;;;21.00;33.00;;;;;;5093218;28;20017;-37
2022/01/19 10:08:42;;;;;;;7.80;4.40;;;21.00;32.90;;;;;;5073759;28;20016;-37
2022/01/19 10:11:25;;;;;;;9.25;4.90;;;21.00;32.70;;;;;;5093184;28;20427;-38
2022/01/19 10:17:00;;;;;;;5.68;3.72;;;21.20;32.30;;;;;;5092468;28;20085;-37
2022/01/19 10:19:41;;;;;;;10.70;3.45;;;21.40;32.10;;;;;;5073960;28;20016;-38
2022/01/19 10:22:06;;;;;;;7.00;3.40;;;21.50;31.90;;;;;;5092301;28;20047;-37
2022/01/19 10:24:51;;;;;;;9.27;3.50;;;21.60;31.70;;;;;;5092620;28;20020;-36
2022/01/19 10:27:28;;;;;;;11.32;3.30;;;21.70;31.50;;;;;;5092511;28;20099;-37
2022/01/19 10:30:04;;;;;;;6.97;3.22;;;21.80;31.40;;;;;;5092849;28;20028;-38
2022/01/19 10:32:43;;;;;;;7.57;3.22;;;21.90;31.30;;;;;;5092600;28;20042;-37
2022/01/19 10:35:29;;;;;;;10.68;3.25;;;22.00;31.30;;;;;;5074570;28;20024;-36
2022/01/19 10:38:13;;;;;;;6.85;2.95;;;22.10;31.20;;;;;;5092416;28;20074;-36
2022/01/19 10:40:41;;;;;;;7.22;3.75;;;22.10;31.10;;;;;;5092562;28;20020;-37
2022/01/19 10:43:40;;;;;;;6.25;3.33;;;22.10;31.10;;;;;;5092276;28;20024;-37
2022/01/19 10:46:26;;;;;;;9.32;2.85;;;22.20;31.00;;;;;;5073809;28;20020;-36
2022/01/19 10:49:14;;;;;;;10.40;3.80;;;22.20;31.00;;;;;;5093336;28;20162;-36
2022/01/19 10:51:45;;;;;;;7.20;2.90;;;22.20;30.90;;;;;;5078489;28;20023;-37
2022/01/19 10:54:13;;;;;;;8.98;3.33;;;22.30;30.80;;;;;;5094778;28;20036;-38
2022/01/19 10:56:39;;;;;;;6.25;2.90;;;22.30;30.70;;;;;;5095838;28;20020;-38
2022/01/19 10:59:08;;;;;;;7.97;2.97;;;22.40;30.80;;;;;;5096645;28;20072;-38
2022/01/19 11:01:44;;;;;;;7.07;3.13;;;22.40;30.70;;;;;;5098746;28;20073;-37
2022/01/19 11:04:23;;;;;;;6.28;2.80;;;22.40;30.60;;;;;;5099615;28;20103;-39
2022/01/19 11:06:57;;;;;;;6.67;3.03;;;22.50;30.60;;;;;;5102183;28;20008;-38
2022/01/19 11:09:25;;;;;;;5.40;3.10;;;22.40;30.60;;;;;;5102068;28;20020;-35
2022/01/19 11:11:52;;;;;;;5.15;3.05;;;22.50;30.50;;;;;;5101865;28;20479;-37
2022/01/19 11:14:19;;;;;;;4.93;2.80;;;22.50;30.50;;;;;;5101988;28;20061;-38
2022/01/19 11:16:45;;;;;;;9.65;3.08;;;22.60;30.50;;;;;;5102169;28;20012;-41
2022/01/19 11:19:11;;;;;;;9.02;2.70;;;22.60;30.50;;;;;;5101946;28;20028;-36
2022/01/19 11:22:15;;;;;;;7.55;3.03;;;22.60;30.50;;;;;;5102311;28;20051;-36
2022/01/19 11:25:02;;;;;;;11.88;3.70;;;22.60;30.40;;;;;;4999595;28;20516;-38
2022/01/19 11:27:38;;;;;;;9.50;3.22;;;22.60;30.50;;;;;;5001131;28;20038;-36
2022/01/19 11:30:18;;;;;;;8.05;3.08;;;22.70;30.50;;;;;;4999533;28;20015;-36
2022/01/19 11:33:05;;;;;;;6.70;2.95;;;22.60;30.50;;;;;;5000751;28;20083;-37
2022/01/19 11:35:32;;;;;;;7.68;2.90;;;22.60;30.60;;;;;;4987653;28;20039;-39
2022/01/19 11:37:59;;;;;;;6.15;2.83;;;22.50;30.60;;;;;;5003172;28;20033;-36
2022/01/19 11:40:34;;;;;;;7.25;2.90;;;22.50;30.70;;;;;;5001819;28;20030;-37
2022/01/19 11:43:21;;;;;;;6.97;2.80;;;22.40;30.90;;;;;;5001005;28;20089;-36
2022/01/19 11:45:47;;;;;;;6.15;3.60;;;22.30;30.90;;;;;;4985350;28;20027;-37
2022/01/19 11:48:17;;;;;;;7.82;3.75;;;22.30;31.00;;;;;;4984656;28;20053;-39
2022/01/19 11:50:44;;;;;;;5.07;2.90;;;22.20;31.10;;;;;;5000916;28;20024;-37
2022/01/19 11:53:11;;;;;;;8.10;2.70;;;22.20;31.20;;;;;;4999852;28;20133;-38
2022/01/19 11:55:38;;;;;;;4.85;2.78;;;22.10;31.30;;;;;;5000310;28;20069;-37
2022/01/19 11:58:20;;;;;;;5.63;2.95;;;22.00;31.50;;;;;;4999797;28;20058;-37
2022/01/19 12:00:47;;;;;;;9.80;2.80;;;21.90;31.60;;;;;;5075093;28;20048;-38
2022/01/19 12:03:18;;;;;;;10.18;3.55;;;21.80;31.80;;;;;;5102129;28;20008;-37
2022/01/19 12:05:44;;;;;;;6.43;3.17;;;21.70;31.90;;;;;;5102167;28;20041;-38
2022/01/19 12:08:22;;;;;;;5.45;2.90;;;21.60;32.00;;;;;;5102154;28;20100;-37
2022/01/19 12:10:50;;;;;;;5.13;2.85;;;21.50;32.20;;;;;;5103134;28;20019;-38
2022/01/19 12:16:18;;;;;;;5.45;3.10;;;21.40;32.50;;;;;;5102969;28;20551;-38
2022/01/19 12:18:49;;;;;;;8.55;3.40;;;21.30;32.70;;;;;;5102390;28;20042;-39
2022/01/19 12:21:22;;;;;;;5.35;2.92;;;21.20;32.80;;;;;;5103491;28;20080;-42
2022/01/19 12:23:48;;;;;;;5.85;2.92;;;21.10;32.90;;;;;;5084873;28;20058;-39
2022/01/19 12:26:14;;;;;;;6.45;3.05;;;21.00;33.00;;;;;;5103401;28;20012;-40
2022/01/19 12:28:50;;;;;;;10.07;3.20;;;20.90;33.20;;;;;;5104221;28;20020;-40
2022/01/19 12:31:22;;;;;;;7.95;3.35;;;20.90;33.30;;;;;;5102542;28;20012;-39
2022/01/19 12:34:09;;;;;;;5.05;3.00;;;20.80;33.40;;;;;;5101319;28;20027;-42
2022/01/19 12:36:56;;;;;;;5.00;3.30;;;20.70;33.60;;;;;;5102655;28;20024;-40
2022/01/19 12:39:25;;;;;;;6.78;3.75;;;20.70;33.70;;;;;;5101611;28;20020;-38
2022/01/19 12:42:00;;;;;;;9.27;3.67;;;20.60;33.80;;;;;;5100815;28;20035;-39
2022/01/19 12:44:34;;;;;;;8.30;3.63;;;20.50;33.90;;;;;;5101079;28;20028;-40
2022/01/19 12:47:04;;;;;;;7.13;3.95;;;20.40;34.00;;;;;;5100317;28;20058;-38
2022/01/19 12:49:31;;;;;;;5.93;3.60;;;20.40;34.20;;;;;;5100748;28;20024;-37
2022/01/19 12:51:56;;;;;;;8.07;3.90;;;20.30;34.30;;;;;;5099603;28;20004;-39
2022/01/19 12:54:27;;;;;;;6.95;3.95;;;20.20;34.40;;;;;;5081498;28;20122;-37
2022/01/19 12:56:57;;;;;;;10.10;4.38;;;20.20;34.50;;;;;;5099834;28;20004;-38
2022/01/19 12:59:23;;;;;;;7.72;4.22;;;20.10;34.60;;;;;;5099613;28;20562;-38
2022/01/19 13:01:48;;;;;;;13.75;4.90;;;20.10;34.70;;;;;;5063486;28;20060;-37
2022/01/19 13:04:28;;;;;;;8.80;4.35;;;20.00;34.80;;;;;;5099479;28;20024;-38
2022/01/19 13:06:56;;;;;;;10.13;5.00;;;19.90;35.00;;;;;;5099072;28;20016;-37
2022/01/19 13:09:30;;;;;;;8.35;4.80;;;19.90;35.00;;;;;;5098347;28;20450;-39
2022/01/19 13:11:56;;;;;;;12.75;4.60;;;19.90;35.10;;;;;;5097479;28;20020;-37
2022/01/19 13:14:25;;;;;;;10.70;4.68;;;19.80;35.20;;;;;;5097739;28;20023;-38
2022/01/19 13:16:52;;;;;;;8.73;5.60;;;19.70;35.40;;;;;;5079976;28;20012;-39
2022/01/19 13:19:28;;;;;;;8.75;5.13;;;19.70;35.50;;;;;;5098286;28;20021;-39
2022/01/19 13:22:06;;;;;;;10.68;5.18;;;19.60;35.60;;;;;;5097362;28;20020;-41
2022/01/19 13:24:33;;;;;;;10.13;6.13;;;19.60;35.70;;;;;;5097534;28;20379;-38
2022/01/19 13:27:00;;;;;;;9.93;5.60;;;19.50;35.80;;;;;;5097045;28;20467;-38
2022/01/19 13:29:27;;;;;;;9.07;5.50;;;19.50;35.90;;;;;;5097994;28;20032;-39
2022/01/19 13:32:06;;;;;;;9.38;5.72;;;19.50;36.10;;;;;;5097405;28;20008;-39
2022/01/19 13:34:49;;;;;;;11.80;6.25;;;19.40;36.10;;;;;;5097491;28;20065;-38
2022/01/19 13:37:15;;;;;;;12.77;5.97;;;19.40;36.20;;;;;;5097647;28;20016;-38
2022/01/19 13:39:40;;;;;;;10.00;6.38;;;19.30;36.20;;;;;;5097780;28;20407;-38
2022/01/19 13:42:07;;;;;;;12.00;5.88;;;19.30;36.90;;;;;;5098181;28;20016;-37
2022/01/19 13:44:36;;;;;;;13.18;5.93;;;19.20;36.50;;;;;;5080593;28;20020;-38
2022/01/19 13:47:24;;;;;;;14.15;6.65;;;19.20;36.50;;;;;;5098515;28;20423;-38
2022/01/19 13:49:53;;;;;;;13.10;6.65;;;19.20;36.60;;;;;;5097858;28;20020;-38
2022/01/19 13:52:21;;;;;;;14.60;6.70;;;19.20;36.60;;;;;;5080153;28;20042;-39
2022/01/19 13:54:48;;;;;;;17.95;7.35;;;19.20;36.70;;;;;;5061082;28;20043;-39
2022/01/19 13:57:14;;;;;;;13.43;7.15;;;19.10;36.80;;;;;;5056948;28;20116;-38
2022/01/19 13:59:40;;;;;;;11.77;6.50;;;19.10;36.90;;;;;;5054818;28;20503;-38
2022/01/19 14:02:13;;;;;;;16.73;7.88;;;19.10;36.90;;;;;;5055821;28;20028;-37
2022/01/19 14:04:50;;;;;;;13.05;7.28;;;19.10;36.90;;;;;;5056585;28;20037;-38
2022/01/19 14:07:17;;;;;;;12.88;7.18;;;19.00;37.00;;;;;;5056395;28;20023;-37
2022/01/19 14:09:43;;;;;;;18.73;7.60;;;19.00;37.00;;;;;;5056702;28;20055;-38
2022/01/19 14:12:16;;;;;;;14.15;7.30;;;19.00;37.20;;;;;;5056618;28;20010;-39